Airfield :
LOGIN :

Register | Disclaimer

   EN    FR    IT 

 










Legend :    VFR   Marginal VFR   IFR   Intensive IFR   Very Intensive IFR
Visi :
Ceiling :
>= 8 km
>= 3000ft
5 to 8 km
1000 to 3000 ft
1500m to 5 km
500 to 1000 ft
800 to 1500m
200 to 500 ft
< 800m
< 200 ft
Symbols :   Thunderstorms  Fog  Heavy snow  Heavy precipitations  Wind > 20 kt
SIGMETs :     Misc.  Thunderstorms  Icing  Turbulence  Mountain Waves  Volcanic Ashes






- Airport Elevation : 1302 ft
- IATA code : GNB


LFLS - Grenoble / St. Geoirs

CURRENT METAR :
  • 070730Z AUTO 36008KT CAVOK 19/09 Q1024 NOSIG

EXPIRED METARs :
  • 070700Z AUTO 35008KT 310V040 CAVOK 18/09 Q1024 NOSIG
  • 070630Z AUTO 36006KT 310V040 CAVOK 17/08 Q1024 NOSIG
  • 070600Z AUTO VRB03KT CAVOK 16/08 Q1024 NOSIG
  • 070530Z AUTO 32005KT 290V350 CAVOK 15/09 Q1023 NOSIG
  • 070500Z AUTO 30003KT 230V360 CAVOK 14/08 Q1023 NOSIG

TAF TAF LFLS
Valid from the 07 at 03:00 until the 08 at 03:00 UTC


070200Z 0703/0803 VRB03KT CAVOK
BECMG 0707/0709 36012KT
TEMPO 0713/0719 36015G25KT
ATIS : +33 4 76 65 55 89



MET'MAP, your aeronautical weather chart ! - Copyright ORBIFLY December 2007 - Disclaimer

ORBIFLY MET'MAP TEAM :

Programming & Development : Alexandra Zaïnal
Original concept : Baudouin d'Aumeries
Technical & hardware support : Manuel Goepfert
Assistance : Marc-Olivier Méhu




SOURCES & CREDITS :

   NOAA